createdAt,value
2017-12-01T00:00:14.716Z,18.81
2017-12-01T00:01:17.189Z,18.81
2017-12-01T00:02:19.646Z,18.80
2017-12-01T00:03:22.101Z,18.78
2017-12-01T00:04:24.572Z,18.76
2017-12-01T00:05:27.030Z,18.73
2017-12-01T00:06:29.549Z,18.73
2017-12-01T00:07:32.066Z,18.72
2017-12-01T00:08:34.554Z,18.70
2017-12-01T00:09:37.084Z,18.68
2017-12-01T00:10:39.548Z,18.66
2017-12-01T00:11:42.014Z,18.65
2017-12-01T00:12:44.470Z,18.63
2017-12-01T00:13:46.927Z,18.60
2017-12-01T00:14:49.396Z,18.59
2017-12-01T00:15:51.860Z,18.56
2017-12-01T00:16:54.334Z,18.55
2017-12-01T00:17:56.813Z,18.53
2017-12-01T00:18:59.267Z,18.51
2017-12-01T00:20:01.727Z,18.49
2017-12-01T00:21:04.221Z,18.47
2017-12-01T00:22:06.682Z,18.46
2017-12-01T00:23:09.153Z,18.43
2017-12-01T00:24:11.610Z,18.43
2017-12-01T00:25:14.086Z,18.41
2017-12-01T00:26:16.561Z,18.40
2017-12-01T00:27:19.033Z,18.39
2017-12-01T00:28:21.506Z,18.41
2017-12-01T00:29:23.962Z,18.42
2017-12-01T00:30:26.425Z,18.45
2017-12-01T00:31:28.892Z,18.51
2017-12-01T00:32:31.357Z,18.58
2017-12-01T00:33:33.833Z,18.65
2017-12-01T00:34:36.304Z,18.70
2017-12-01T00:35:38.769Z,18.75
2017-12-01T00:36:41.219Z,18.80
2017-12-01T00:37:43.698Z,18.83
2017-12-01T00:38:46.184Z,18.87
2017-12-01T00:39:48.665Z,18.89
2017-12-01T00:40:51.129Z,18.90
2017-12-01T00:41:53.595Z,18.91
2017-12-01T00:42:56.060Z,18.90
2017-12-01T00:43:58.598Z,18.90
2017-12-01T00:45:01.077Z,18.90
2017-12-01T00:46:03.535Z,18.89
2017-12-01T00:47:06.000Z,18.87
2017-12-01T00:48:08.455Z,18.87
2017-12-01T00:49:10.910Z,18.85
2017-12-01T00:50:13.400Z,18.83
2017-12-01T00:51:15.893Z,18.81
2017-12-01T00:52:18.432Z,18.79
2017-12-01T00:53:20.904Z,18.77
2017-12-01T00:54:23.371Z,18.76
2017-12-01T00:55:25.845Z,18.74
2017-12-01T00:56:28.329Z,18.72
2017-12-01T00:57:30.783Z,18.70
2017-12-01T00:58:33.246Z,18.68
2017-12-01T00:59:35.721Z,18.66
2017-12-01T01:00:38.179Z,18.64
2017-12-01T01:01:40.639Z,18.62
2017-12-01T01:02:43.094Z,18.60
2017-12-01T01:03:45.569Z,18.59
2017-12-01T01:04:48.035Z,18.57
2017-12-01T01:05:50.505Z,18.55
2017-12-01T01:06:52.967Z,18.53
2017-12-01T01:07:55.437Z,18.52
2017-12-01T01:08:57.886Z,18.51
2017-12-01T01:10:00.357Z,18.48
2017-12-01T01:11:02.825Z,18.47
2017-12-01T01:12:05.283Z,18.45
2017-12-01T01:13:07.742Z,18.43
2017-12-01T01:14:10.195Z,18.42
2017-12-01T01:15:12.660Z,18.41
2017-12-01T01:16:15.137Z,18.39
2017-12-01T01:17:17.605Z,18.38
2017-12-01T01:18:20.081Z,18.36
2017-12-01T01:19:22.560Z,18.35
2017-12-01T01:20:25.050Z,18.33
2017-12-01T01:21:27.502Z,18.33
2017-12-01T01:22:29.973Z,18.33
2017-12-01T01:23:32.430Z,18.36
2017-12-01T01:24:34.887Z,18.37
2017-12-01T01:25:37.352Z,18.38
2017-12-01T01:26:39.816Z,18.44
2017-12-01T01:27:42.453Z,18.53
2017-12-01T01:28:44.914Z,18.61
2017-12-01T01:29:47.455Z,18.71
2017-12-01T01:30:49.926Z,18.76
2017-12-01T01:31:52.380Z,18.84
2017-12-01T01:32:54.934Z,18.88
2017-12-01T01:33:57.397Z,18.93
2017-12-01T01:34:59.874Z,18.96
2017-12-01T01:36:02.341Z,18.99
2017-12-01T01:37:04.805Z,19.02
2017-12-01T01:38:07.272Z,19.04
2017-12-01T01:39:09.741Z,19.04
2017-12-01T01:40:12.209Z,19.05
2017-12-01T01:41:14.662Z,19.05
2017-12-01T01:42:17.128Z,19.05
2017-12-01T01:43:19.591Z,19.05
2017-12-01T01:44:22.042Z,19.04
2017-12-01T01:45:24.515Z,19.02
2017-12-01T01:46:26.970Z,19.02
2017-12-01T01:47:29.441Z,19.00
2017-12-01T01:48:31.908Z,18.99
2017-12-01T01:49:34.373Z,18.97
2017-12-01T01:50:36.826Z,18.96
2017-12-01T01:51:39.297Z,18.94
2017-12-01T01:52:41.761Z,18.92
2017-12-01T01:53:44.215Z,18.90
2017-12-01T01:54:46.684Z,18.88
2017-12-01T01:55:49.166Z,18.87
2017-12-01T01:56:51.640Z,18.85
2017-12-01T01:57:54.104Z,18.83
2017-12-01T01:58:56.583Z,18.82
2017-12-01T01:59:59.048Z,18.79
2017-12-01T02:01:01.513Z,18.76
2017-12-01T02:02:03.963Z,18.72
2017-12-01T02:03:06.437Z,18.71
2017-12-01T02:04:08.900Z,18.70
2017-12-01T02:05:11.391Z,18.69
2017-12-01T02:06:13.862Z,18.66
2017-12-01T02:07:16.342Z,18.64
2017-12-01T02:08:18.812Z,18.62
2017-12-01T02:09:21.264Z,18.59
2017-12-01T02:10:23.734Z,18.57
2017-12-01T02:11:26.212Z,18.55
2017-12-01T02:12:28.669Z,18.54
2017-12-01T02:13:31.127Z,18.52
2017-12-01T02:14:33.578Z,18.50
2017-12-01T02:15:36.045Z,18.48
2017-12-01T02:16:38.511Z,18.47
2017-12-01T02:17:40.964Z,18.45
2017-12-01T02:18:43.415Z,18.44
2017-12-01T02:19:45.880Z,18.43
2017-12-01T02:20:48.353Z,18.42
2017-12-01T02:21:50.809Z,18.41
2017-12-01T02:22:53.267Z,18.40
2017-12-01T02:23:55.732Z,18.39
2017-12-01T02:24:58.198Z,18.38
2017-12-01T02:26:00.670Z,18.38
2017-12-01T02:27:03.131Z,18.38
2017-12-01T02:28:05.590Z,18.39
2017-12-01T02:29:08.101Z,18.43
2017-12-01T02:30:10.569Z,18.48
2017-12-01T02:31:13.049Z,18.56
2017-12-01T02:32:15.511Z,18.63
2017-12-01T02:33:17.987Z,18.68
2017-12-01T02:34:20.435Z,18.73
2017-12-01T02:35:22.882Z,18.77
2017-12-01T02:36:25.353Z,18.82
2017-12-01T02:37:27.824Z,18.84
2017-12-01T02:38:30.300Z,18.85
2017-12-01T02:39:32.766Z,18.88
2017-12-01T02:40:35.245Z,18.88
2017-12-01T02:41:37.706Z,18.89
2017-12-01T02:42:40.166Z,18.89
2017-12-01T02:43:42.622Z,18.89
2017-12-01T02:44:45.074Z,18.88
2017-12-01T02:45:47.531Z,18.88
2017-12-01T02:46:49.997Z,18.89
2017-12-01T02:47:52.466Z,18.88
2017-12-01T02:48:54.940Z,18.87
2017-12-01T02:49:57.429Z,18.86
2017-12-01T02:50:59.902Z,18.85
2017-12-01T02:52:02.436Z,18.84
2017-12-01T02:53:04.903Z,18.84
2017-12-01T02:54:07.372Z,18.83
2017-12-01T02:55:09.826Z,18.81
2017-12-01T02:56:12.279Z,18.78
2017-12-01T02:57:14.744Z,18.76
2017-12-01T02:58:17.213Z,18.74
2017-12-01T02:59:19.676Z,18.72
2017-12-01T03:00:22.135Z,18.70
2017-12-01T03:01:24.656Z,18.68
2017-12-01T03:02:27.110Z,18.66
2017-12-01T03:03:29.580Z,18.65
2017-12-01T03:04:32.130Z,18.64
2017-12-01T03:05:34.578Z,18.61
2017-12-01T03:06:37.033Z,18.59
2017-12-01T03:07:39.496Z,18.58
2017-12-01T03:08:42.063Z,18.56
2017-12-01T03:09:44.518Z,18.55
2017-12-01T03:10:46.991Z,18.53
2017-12-01T03:11:49.457Z,18.52
2017-12-01T03:12:51.912Z,18.50
2017-12-01T03:13:54.388Z,18.48
2017-12-01T03:14:56.842Z,18.47
2017-12-01T03:15:59.299Z,18.44
2017-12-01T03:17:01.759Z,18.44
2017-12-01T03:18:04.237Z,18.43
2017-12-01T03:19:06.692Z,18.42
2017-12-01T03:20:09.147Z,18.41
2017-12-01T03:21:11.617Z,18.41
2017-12-01T03:22:14.076Z,18.40
2017-12-01T03:23:16.541Z,18.41
2017-12-01T03:24:19.032Z,18.41
2017-12-01T03:25:21.491Z,18.45
2017-12-01T03:26:24.083Z,18.51
2017-12-01T03:27:26.553Z,18.56
2017-12-01T03:28:29.024Z,18.60
2017-12-01T03:29:31.500Z,18.67
2017-12-01T03:30:33.967Z,18.71
2017-12-01T03:31:36.461Z,18.77
2017-12-01T03:32:38.924Z,18.82
2017-12-01T03:33:41.397Z,18.87
2017-12-01T03:34:43.859Z,18.92
2017-12-01T03:35:46.320Z,18.94
2017-12-01T03:36:48.788Z,18.96
2017-12-01T03:37:51.261Z,18.97
2017-12-01T03:38:53.718Z,18.97
2017-12-01T03:39:56.195Z,18.98
2017-12-01T03:40:58.692Z,18.97
2017-12-01T03:42:01.135Z,18.97
2017-12-01T03:43:03.600Z,18.97
2017-12-01T03:44:06.069Z,18.98
2017-12-01T03:45:08.535Z,18.97
2017-12-01T03:46:11.007Z,18.98
2017-12-01T03:47:13.519Z,18.95
2017-12-01T03:48:15.990Z,18.92
2017-12-01T03:49:18.588Z,18.91
2017-12-01T03:50:21.102Z,18.88
2017-12-01T03:51:23.601Z,18.85
2017-12-01T03:52:26.068Z,18.82
2017-12-01T03:53:28.580Z,18.80
2017-12-01T03:55:32.795Z,18.74
2017-12-01T03:57:37.168Z,18.70
2017-12-01T03:58:39.640Z,18.68
2017-12-01T03:59:42.111Z,18.67
2017-12-01T04:00:44.584Z,18.66
2017-12-01T04:01:47.040Z,18.64
2017-12-01T04:02:49.495Z,18.64
2017-12-01T04:03:51.947Z,18.62
2017-12-01T04:04:54.422Z,18.61
2017-12-01T04:05:56.886Z,18.60
2017-12-01T04:06:59.342Z,18.58
2017-12-01T04:08:01.803Z,18.56
2017-12-01T04:09:04.254Z,18.54
2017-12-01T04:10:06.710Z,18.53
2017-12-01T04:11:09.171Z,18.52
2017-12-01T04:12:11.658Z,18.51
2017-12-01T04:13:14.134Z,18.50
2017-12-01T04:14:16.594Z,18.47
2017-12-01T04:15:19.068Z,18.45
2017-12-01T04:16:21.518Z,18.43
2017-12-01T04:17:23.975Z,18.42
2017-12-01T04:18:26.445Z,18.39
2017-12-01T04:19:28.916Z,18.38
2017-12-01T04:20:31.385Z,18.36
2017-12-01T04:21:33.873Z,18.33
2017-12-01T04:22:36.344Z,18.32
2017-12-01T04:23:38.826Z,18.30
2017-12-01T04:24:41.293Z,18.28
2017-12-01T04:25:43.759Z,18.27
2017-12-01T04:26:46.223Z,18.26
2017-12-01T04:27:48.701Z,18.25
2017-12-01T04:28:51.178Z,18.24
2017-12-01T04:29:53.648Z,18.24
2017-12-01T04:30:56.103Z,18.26
2017-12-01T04:31:58.581Z,18.30
2017-12-01T04:33:01.051Z,18.33
2017-12-01T04:34:03.530Z,18.40
2017-12-01T04:35:06.009Z,18.48
2017-12-01T04:36:08.481Z,18.54
2017-12-01T04:37:10.958Z,18.60
2017-12-01T04:38:13.417Z,18.65
2017-12-01T04:39:15.896Z,18.69
2017-12-01T04:40:18.358Z,18.74
2017-12-01T04:41:20.841Z,18.77
2017-12-01T04:42:23.340Z,18.81
2017-12-01T04:43:25.799Z,18.82
2017-12-01T04:44:28.258Z,18.82
2017-12-01T04:45:30.736Z,18.83
2017-12-01T04:46:33.194Z,18.84
2017-12-01T04:47:35.669Z,18.82
2017-12-01T04:48:38.136Z,18.82
2017-12-01T04:49:40.613Z,18.81
2017-12-01T04:50:43.090Z,18.79
2017-12-01T04:51:45.555Z,18.76
2017-12-01T04:52:48.033Z,18.76
2017-12-01T04:53:50.499Z,18.74
2017-12-01T04:54:52.997Z,18.72
2017-12-01T04:55:55.463Z,18.71
2017-12-01T04:56:57.937Z,18.69
2017-12-01T04:58:00.401Z,18.67
2017-12-01T04:59:02.877Z,18.66
2017-12-01T05:00:05.341Z,18.64
2017-12-01T05:01:07.808Z,18.62
2017-12-01T05:02:10.285Z,18.60
2017-12-01T05:03:12.748Z,18.59
2017-12-01T05:04:15.221Z,18.56
2017-12-01T05:05:17.687Z,18.54
2017-12-01T05:06:20.186Z,18.53
2017-12-01T05:07:22.651Z,18.51
2017-12-01T05:08:25.122Z,18.50
2017-12-01T05:09:27.591Z,18.49
2017-12-01T05:10:30.054Z,18.47
2017-12-01T05:11:32.515Z,18.45
2017-12-01T05:12:34.978Z,18.44
2017-12-01T05:13:37.438Z,18.42
2017-12-01T05:14:39.907Z,18.41
2017-12-01T05:15:42.374Z,18.40
2017-12-01T05:16:44.835Z,18.38
2017-12-01T05:17:47.335Z,18.36
2017-12-01T05:18:49.794Z,18.35
2017-12-01T05:19:52.250Z,18.33
2017-12-01T05:20:54.724Z,18.32
2017-12-01T05:21:57.196Z,18.30
2017-12-01T05:22:59.659Z,18.29
2017-12-01T05:24:02.347Z,18.28
2017-12-01T05:25:04.850Z,18.26
2017-12-01T05:26:07.329Z,18.26
2017-12-01T05:27:09.805Z,18.25
2017-12-01T05:28:12.302Z,18.25
2017-12-01T05:29:14.758Z,18.24
2017-12-01T05:30:17.289Z,18.24
2017-12-01T05:31:19.746Z,18.27
2017-12-01T05:32:22.221Z,18.32
2017-12-01T05:33:24.696Z,18.39
2017-12-01T05:34:27.159Z,18.44
2017-12-01T05:35:29.614Z,18.52
2017-12-01T05:36:32.104Z,18.58
2017-12-01T05:37:34.560Z,18.64
2017-12-01T05:38:37.027Z,18.68
2017-12-01T05:39:39.518Z,18.73
2017-12-01T05:40:41.975Z,18.76
2017-12-01T05:41:44.448Z,18.80
2017-12-01T05:42:46.907Z,18.82
2017-12-01T05:43:49.385Z,18.82
2017-12-01T05:44:51.864Z,18.85
2017-12-01T05:45:54.330Z,18.85
2017-12-01T05:46:56.797Z,18.86
2017-12-01T05:47:59.276Z,18.86
2017-12-01T05:49:01.762Z,18.85
2017-12-01T05:50:04.232Z,18.84
2017-12-01T05:51:06.709Z,18.84
2017-12-01T05:52:09.195Z,18.82
2017-12-01T05:53:11.664Z,18.81
2017-12-01T05:54:14.153Z,18.80
2017-12-01T05:55:16.611Z,18.77
2017-12-01T05:56:19.066Z,18.76
2017-12-01T05:57:21.537Z,18.74
2017-12-01T05:58:24.002Z,18.73
2017-12-01T05:59:26.458Z,18.71
2017-12-01T06:00:28.918Z,18.69
2017-12-01T06:01:31.378Z,18.67
2017-12-01T06:02:33.854Z,18.66
2017-12-01T06:03:36.307Z,18.63
2017-12-01T06:04:38.781Z,18.61
2017-12-01T06:05:41.280Z,18.60
2017-12-01T06:06:43.764Z,18.59
2017-12-01T06:07:46.243Z,18.56
2017-12-01T06:08:48.698Z,18.55
2017-12-01T06:09:51.243Z,18.54
2017-12-01T06:10:53.707Z,18.51
2017-12-01T06:11:56.206Z,18.50
2017-12-01T06:12:58.680Z,18.48
2017-12-01T06:14:01.155Z,18.47
2017-12-01T06:15:03.638Z,18.46
2017-12-01T06:16:06.117Z,18.44
2017-12-01T06:17:08.621Z,18.42
2017-12-01T06:18:11.087Z,18.41
2017-12-01T06:19:13.551Z,18.40
2017-12-01T06:20:16.015Z,18.38
2017-12-01T06:21:18.482Z,18.38
2017-12-01T06:22:20.942Z,18.38
2017-12-01T06:23:23.420Z,18.37
2017-12-01T06:24:25.874Z,18.37
2017-12-01T06:25:28.335Z,18.37
2017-12-01T06:26:30.804Z,18.35
2017-12-01T06:27:33.329Z,18.34
2017-12-01T06:28:35.809Z,18.34
2017-12-01T06:29:38.263Z,18.33
2017-12-01T06:30:40.728Z,18.31
2017-12-01T06:31:43.194Z,18.31
2017-12-01T06:32:45.671Z,18.32
2017-12-01T06:33:48.132Z,18.34
2017-12-01T06:34:55.148Z,18.37
2017-12-01T06:35:57.636Z,18.43
2017-12-01T06:37:00.127Z,18.51
2017-12-01T06:38:02.585Z,18.57
2017-12-01T06:39:05.109Z,18.64
2017-12-01T06:40:07.651Z,18.70
2017-12-01T06:41:10.116Z,18.74
2017-12-01T06:42:12.592Z,18.77
2017-12-01T06:43:15.065Z,18.80
2017-12-01T06:44:17.524Z,18.82
2017-12-01T06:45:20.001Z,18.84
2017-12-01T06:46:22.477Z,18.86
2017-12-01T06:47:24.938Z,18.87
2017-12-01T06:48:28.390Z,18.88
2017-12-01T06:49:30.880Z,18.88
2017-12-01T06:50:33.359Z,18.88
2017-12-01T06:51:35.841Z,18.88
2017-12-01T06:52:38.363Z,18.87
2017-12-01T06:53:40.833Z,18.87
2017-12-01T06:54:43.289Z,18.87
2017-12-01T06:55:45.768Z,18.85
2017-12-01T06:56:48.238Z,18.83
2017-12-01T06:57:50.694Z,18.81
2017-12-01T06:58:53.171Z,18.80
2017-12-01T06:59:55.644Z,18.78
2017-12-01T07:00:58.103Z,18.76
2017-12-01T07:02:00.714Z,18.74
2017-12-01T07:03:03.182Z,18.72
2017-12-01T07:04:05.659Z,18.72
2017-12-01T07:05:08.127Z,18.70
2017-12-01T07:06:10.605Z,18.68
2017-12-01T07:07:13.100Z,18.66
2017-12-01T07:08:15.562Z,18.65
2017-12-01T07:09:18.041Z,18.64
2017-12-01T07:10:20.504Z,18.64
2017-12-01T07:11:22.968Z,18.63
2017-12-01T07:12:25.435Z,18.64
2017-12-01T07:13:27.893Z,18.67
2017-12-01T07:14:30.368Z,18.66
2017-12-01T07:15:32.844Z,18.62
2017-12-01T07:16:35.323Z,18.58
2017-12-01T07:17:37.822Z,18.55
2017-12-01T07:18:40.291Z,18.50
2017-12-01T07:19:42.769Z,18.45
2017-12-01T07:20:45.249Z,18.41
2017-12-01T07:21:47.723Z,18.37
2017-12-01T07:22:50.197Z,18.33
2017-12-01T07:24:54.407Z,18.25
2017-12-01T07:25:56.889Z,18.23
2017-12-01T07:27:07.329Z,18.22
2017-12-01T07:28:09.795Z,18.23
2017-12-01T07:29:12.267Z,18.27
2017-12-01T07:30:14.738Z,18.34
2017-12-01T07:31:17.198Z,18.38
2017-12-01T07:32:19.663Z,18.44
2017-12-01T07:33:22.130Z,18.50
2017-12-01T07:34:24.648Z,18.54
2017-12-01T07:35:27.121Z,18.59
2017-12-01T07:36:29.604Z,18.67
2017-12-01T07:37:32.066Z,18.73
2017-12-01T07:38:34.534Z,18.75
2017-12-01T07:39:37.011Z,18.74
2017-12-01T07:40:39.542Z,18.71
2017-12-01T07:41:41.996Z,18.70
2017-12-01T07:42:44.486Z,18.67
2017-12-01T07:43:47.799Z,18.64
2017-12-01T07:46:37.298Z,18.57
2017-12-01T07:47:39.767Z,18.51
2017-12-01T07:48:42.249Z,18.44
2017-12-01T07:49:44.797Z,18.41
2017-12-01T07:50:47.277Z,18.36
2017-12-01T07:51:49.757Z,18.35
2017-12-01T07:52:52.236Z,18.40
2017-12-01T07:53:54.702Z,18.42
2017-12-01T07:54:57.175Z,18.44
2017-12-01T07:55:59.643Z,18.49
2017-12-01T07:57:02.116Z,18.53
2017-12-01T07:58:04.665Z,18.55
2017-12-01T07:59:07.153Z,18.58
2017-12-01T08:00:09.636Z,18.60
2017-12-01T08:01:12.103Z,18.63
2017-12-01T08:02:14.575Z,18.65
2017-12-01T08:03:17.042Z,18.67
2017-12-01T08:04:19.526Z,18.68
2017-12-01T08:05:22.020Z,18.66
2017-12-01T08:06:24.488Z,18.64
2017-12-01T08:07:30.287Z,18.62
2017-12-01T08:08:32.773Z,18.58
2017-12-01T08:09:35.256Z,18.55
2017-12-01T08:10:37.722Z,18.51
2017-12-01T08:11:40.236Z,18.47
2017-12-01T08:12:42.699Z,18.44
2017-12-01T08:13:45.181Z,18.42
2017-12-01T08:14:47.674Z,18.39
2017-12-01T08:16:01.973Z,18.36
2017-12-01T08:17:16.441Z,18.33
2017-12-01T08:19:56.079Z,18.27
2017-12-01T08:21:01.072Z,18.25
2017-12-01T08:22:15.393Z,18.23
2017-12-01T08:23:26.559Z,18.20
2017-12-01T08:24:41.077Z,18.16
2017-12-01T08:25:43.553Z,18.13
2017-12-01T08:26:46.041Z,18.11
2017-12-01T08:27:48.557Z,18.08
2017-12-01T08:28:51.022Z,18.05
2017-12-01T08:29:53.491Z,18.03
2017-12-01T08:30:55.951Z,18.01
2017-12-01T08:31:58.428Z,17.99
2017-12-01T08:33:00.895Z,17.98
2017-12-01T08:34:03.359Z,17.96
2017-12-01T08:35:05.837Z,17.96
2017-12-01T08:36:08.317Z,17.95
2017-12-01T08:37:10.788Z,17.94
2017-12-01T08:38:13.257Z,17.94
2017-12-01T08:39:15.771Z,17.94
2017-12-01T08:40:18.231Z,17.96
2017-12-01T08:41:20.719Z,17.97
2017-12-01T08:42:23.196Z,17.97
2017-12-01T08:43:25.663Z,17.96
2017-12-01T08:44:28.139Z,17.96
2017-12-01T08:45:30.666Z,17.94
2017-12-01T08:46:33.102Z,17.93
2017-12-01T08:47:35.584Z,17.93
2017-12-01T08:48:38.051Z,17.91
2017-12-01T08:49:40.531Z,17.91
2017-12-01T08:50:43.071Z,17.91
2017-12-01T08:51:45.529Z,17.91
2017-12-01T08:52:48.007Z,17.91
2017-12-01T08:53:50.496Z,17.92
2017-12-01T08:54:52.962Z,17.93
2017-12-01T08:55:55.443Z,17.95
2017-12-01T08:56:57.937Z,18.00
2017-12-01T08:58:00.403Z,18.00
2017-12-01T08:59:02.881Z,17.99
2017-12-01T09:00:05.365Z,17.96
2017-12-01T09:01:07.846Z,17.94
2017-12-01T09:02:10.327Z,17.92
2017-12-01T09:03:12.823Z,17.90
2017-12-01T09:04:15.287Z,17.87
2017-12-01T09:05:17.762Z,17.85
2017-12-01T09:06:20.244Z,17.84
2017-12-01T09:07:22.723Z,17.82
2017-12-01T09:08:25.191Z,17.79
2017-12-01T09:09:27.710Z,17.78
2017-12-01T09:10:30.178Z,17.77
2017-12-01T09:11:32.713Z,17.75
2017-12-01T09:12:35.152Z,17.74
2017-12-01T09:13:37.648Z,17.73
2017-12-01T09:14:40.106Z,17.71
2017-12-01T09:15:42.576Z,17.70
2017-12-01T09:16:45.052Z,17.70
2017-12-01T09:17:47.534Z,17.69
2017-12-01T09:18:50.036Z,17.67
2017-12-01T09:19:52.520Z,17.67
2017-12-01T09:20:54.991Z,17.66
2017-12-01T09:21:57.468Z,17.65
2017-12-01T09:22:59.944Z,17.64
2017-12-01T09:24:02.408Z,17.64
2017-12-01T09:25:04.877Z,17.63
2017-12-01T09:26:07.354Z,17.62
2017-12-01T09:27:09.818Z,17.61
2017-12-01T09:28:12.302Z,17.60
2017-12-01T09:29:14.775Z,17.59
2017-12-01T09:30:17.234Z,17.58
2017-12-01T09:31:19.697Z,17.57
2017-12-01T09:32:22.154Z,17.57
2017-12-01T09:33:24.621Z,17.57
2017-12-01T09:34:27.096Z,17.56
2017-12-01T09:35:29.559Z,17.55
2017-12-01T09:36:32.047Z,17.54
2017-12-01T09:37:34.524Z,17.54
2017-12-01T09:38:37.000Z,17.53
2017-12-01T09:39:39.475Z,17.52
2017-12-01T09:40:41.952Z,17.51
2017-12-01T09:41:44.528Z,17.51
2017-12-01T09:42:47.011Z,17.50
2017-12-01T09:43:49.468Z,17.50
2017-12-01T09:44:51.950Z,17.50
2017-12-01T09:45:54.416Z,17.48
2017-12-01T09:46:56.907Z,17.50
2017-12-01T09:47:59.371Z,17.48
2017-12-01T09:49:01.853Z,17.48
2017-12-01T09:50:04.324Z,17.47
2017-12-01T09:51:06.796Z,17.46
2017-12-01T09:52:09.271Z,17.46
2017-12-01T09:53:11.747Z,17.44
2017-12-01T09:54:14.258Z,17.44
2017-12-01T09:55:16.745Z,17.39
2017-12-01T09:56:19.231Z,17.36
2017-12-01T09:57:21.690Z,17.32
2017-12-01T09:58:24.259Z,17.27
2017-12-01T09:59:26.732Z,17.25
2017-12-01T10:00:29.220Z,17.24
2017-12-01T10:01:31.737Z,17.22
2017-12-01T10:02:34.229Z,17.22
2017-12-01T10:03:36.715Z,17.22
2017-12-01T10:04:39.194Z,17.22
2017-12-01T10:05:41.671Z,17.22
2017-12-01T10:06:44.156Z,17.22
2017-12-01T10:07:46.686Z,17.22
2017-12-01T10:08:49.178Z,17.22
2017-12-01T10:09:51.659Z,17.20
2017-12-01T10:10:54.130Z,17.21
2017-12-01T10:11:56.623Z,17.15
2017-12-01T10:12:59.094Z,17.13
2017-12-01T10:14:01.571Z,17.17
2017-12-01T10:15:04.076Z,17.19
2017-12-01T10:16:06.565Z,17.22
2017-12-01T10:17:09.038Z,17.24
2017-12-01T10:18:11.511Z,17.25
2017-12-01T10:19:13.987Z,17.27
2017-12-01T10:20:16.477Z,17.26
2017-12-01T10:21:18.955Z,17.25
2017-12-01T10:22:21.501Z,17.23
2017-12-01T10:23:23.984Z,17.22
2017-12-01T10:24:26.478Z,17.21
2017-12-01T10:25:28.963Z,17.19
2017-12-01T10:26:31.455Z,17.19
2017-12-01T10:27:34.112Z,17.18
2017-12-01T10:28:36.590Z,17.19
2017-12-01T10:29:39.054Z,17.19
2017-12-01T10:30:41.534Z,17.19
2017-12-01T10:31:44.027Z,17.19
2017-12-01T10:32:46.495Z,17.17
2017-12-01T10:33:48.972Z,17.16
2017-12-01T10:34:51.439Z,17.14
2017-12-01T10:35:53.920Z,17.13
2017-12-01T10:36:56.390Z,17.16
2017-12-01T10:37:58.871Z,17.16
2017-12-01T10:39:01.366Z,17.16
2017-12-01T10:40:03.840Z,17.17
2017-12-01T10:41:06.341Z,17.17
2017-12-01T10:42:08.819Z,17.19
2017-12-01T10:43:11.363Z,17.20
2017-12-01T10:44:13.824Z,17.22
2017-12-01T10:45:16.303Z,17.24
2017-12-01T10:46:18.801Z,17.27
2017-12-01T10:47:21.274Z,17.33
2017-12-01T10:48:23.766Z,17.35
2017-12-01T10:49:26.226Z,17.38
2017-12-01T10:51:37.593Z,17.41
2017-12-01T10:52:40.085Z,17.43
2017-12-01T10:53:42.572Z,17.44
2017-12-01T10:54:45.062Z,17.45
2017-12-01T10:55:47.543Z,17.47
2017-12-01T10:56:50.057Z,17.47
2017-12-01T10:57:52.532Z,17.50
2017-12-01T10:58:55.006Z,17.52
2017-12-01T10:59:57.559Z,17.53
2017-12-01T11:01:00.124Z,17.53
2017-12-01T11:02:02.675Z,17.53
2017-12-01T11:03:05.173Z,17.54
2017-12-01T11:04:07.692Z,17.55
2017-12-01T11:05:10.167Z,17.56
2017-12-01T11:06:12.648Z,17.56
2017-12-01T11:07:15.110Z,17.56
2017-12-01T11:08:17.612Z,17.56
2017-12-01T11:09:20.086Z,17.57
2017-12-01T11:10:22.550Z,17.57
2017-12-01T11:11:25.035Z,17.57
2017-12-01T11:12:27.559Z,17.57
2017-12-01T11:13:30.026Z,17.56
2017-12-01T11:14:32.576Z,17.55
2017-12-01T11:15:35.061Z,17.53
2017-12-01T11:16:37.529Z,17.52
2017-12-01T11:17:39.998Z,17.50
2017-12-01T11:18:42.467Z,17.51
2017-12-01T11:19:44.950Z,17.51
2017-12-01T11:20:47.423Z,17.49
2017-12-01T11:21:49.917Z,17.47
2017-12-01T11:22:52.391Z,17.46
2017-12-01T11:23:54.854Z,17.44
2017-12-01T11:24:57.323Z,17.44
2017-12-01T11:25:59.788Z,17.44
2017-12-01T11:27:02.529Z,17.44
2017-12-01T11:28:05.148Z,17.43
2017-12-01T11:29:07.637Z,17.44
2017-12-01T11:30:10.099Z,17.44
2017-12-01T11:31:12.563Z,17.46
2017-12-01T11:32:15.043Z,17.46
2017-12-01T11:33:17.534Z,17.48
2017-12-01T11:34:19.998Z,17.51
2017-12-01T11:35:22.478Z,17.53
2017-12-01T11:36:24.946Z,17.54
2017-12-01T11:37:27.441Z,17.57
2017-12-01T11:38:29.909Z,17.60
2017-12-01T11:39:32.424Z,17.63
2017-12-01T11:40:34.913Z,17.66
2017-12-01T11:41:37.414Z,17.69
2017-12-01T11:42:39.878Z,17.70
2017-12-01T11:43:42.370Z,17.72
2017-12-01T11:44:44.830Z,17.74
2017-12-01T11:45:47.308Z,17.76
2017-12-01T11:46:49.775Z,17.75
2017-12-01T11:47:52.261Z,17.75
2017-12-01T11:48:54.738Z,17.76
2017-12-01T11:49:57.200Z,17.75
2017-12-01T11:50:59.667Z,17.74
2017-12-01T11:52:02.128Z,17.73
2017-12-01T11:53:04.586Z,17.72
2017-12-01T11:54:07.045Z,17.70
2017-12-01T11:55:09.516Z,17.70
2017-12-01T11:56:11.986Z,17.68
2017-12-01T11:57:14.457Z,17.68
2017-12-01T11:58:16.941Z,17.68
2017-12-01T11:59:19.407Z,17.69
2017-12-01T12:00:25.612Z,17.69
2017-12-01T12:01:28.143Z,17.70
2017-12-01T12:02:30.622Z,17.72
2017-12-01T12:03:33.115Z,17.73
2017-12-01T12:04:35.584Z,17.74
2017-12-01T12:05:38.072Z,17.74
2017-12-01T12:06:40.531Z,17.74
2017-12-01T12:07:43.036Z,17.75
2017-12-01T12:08:45.495Z,17.75
2017-12-01T12:09:47.963Z,17.75
2017-12-01T12:10:50.512Z,17.76
2017-12-01T12:11:52.979Z,17.76
2017-12-01T12:12:55.457Z,17.75
2017-12-01T12:13:57.937Z,17.75
2017-12-01T12:15:00.509Z,17.73
2017-12-01T12:16:03.005Z,17.73
2017-12-01T12:17:05.473Z,17.72
2017-12-01T12:18:07.930Z,17.72
2017-12-01T12:19:10.409Z,17.73
2017-12-01T12:20:12.888Z,17.72
2017-12-01T12:21:15.373Z,17.72
2017-12-01T12:22:17.871Z,17.72
2017-12-01T12:23:20.342Z,17.73
2017-12-01T12:24:22.840Z,17.73
2017-12-01T12:25:25.302Z,17.72
2017-12-01T12:26:27.816Z,17.72
2017-12-01T12:27:30.330Z,17.71
2017-12-01T12:28:32.772Z,17.69
2017-12-01T12:29:35.256Z,17.68
2017-12-01T12:30:37.743Z,17.64
2017-12-01T12:31:40.226Z,17.61
2017-12-01T12:32:42.713Z,17.55
2017-12-01T12:33:45.183Z,17.48
2017-12-01T12:34:47.670Z,17.42
2017-12-01T12:35:50.169Z,17.32
2017-12-01T12:36:52.648Z,17.27
2017-12-01T12:37:55.125Z,17.18
2017-12-01T12:38:57.604Z,17.14
2017-12-01T12:40:00.078Z,17.09
2017-12-01T12:41:02.584Z,17.04
2017-12-01T12:42:05.064Z,16.97
2017-12-01T12:43:07.540Z,16.91
2017-12-01T12:44:10.029Z,16.83
2017-12-01T12:45:12.539Z,16.73
2017-12-01T12:46:15.290Z,16.71
2017-12-01T12:47:17.790Z,16.68
2017-12-01T12:48:20.271Z,16.68
2017-12-01T12:49:22.746Z,16.68
2017-12-01T12:50:25.233Z,16.63
2017-12-01T12:51:27.730Z,16.63
2017-12-01T12:52:30.213Z,16.64
2017-12-01T12:53:32.703Z,16.65
2017-12-01T12:54:35.182Z,16.59
2017-12-01T12:55:37.681Z,16.41
2017-12-01T12:56:40.178Z,16.43
2017-12-01T12:57:43.020Z,16.44
2017-12-01T12:58:45.502Z,16.41
2017-12-01T12:59:48.006Z,16.42
2017-12-01T13:00:50.491Z,16.47
2017-12-01T13:01:53.049Z,16.44
2017-12-01T13:02:55.525Z,16.45
2017-12-01T13:03:58.044Z,16.47
2017-12-01T13:05:00.543Z,16.49
2017-12-01T13:06:03.126Z,16.53
2017-12-01T13:07:05.672Z,16.56
2017-12-01T13:08:08.167Z,16.60
2017-12-01T13:09:10.647Z,16.64
2017-12-01T13:10:13.163Z,16.66
2017-12-01T13:11:15.836Z,16.66
2017-12-01T13:12:18.336Z,16.66
2017-12-01T13:13:20.832Z,16.65
2017-12-01T13:14:23.314Z,16.62
2017-12-01T13:15:25.800Z,16.61
2017-12-01T13:16:28.297Z,16.59
2017-12-01T13:17:30.879Z,16.57
2017-12-01T13:18:33.437Z,16.57
2017-12-01T13:19:35.939Z,16.55
2017-12-01T13:20:38.469Z,16.55
2017-12-01T13:21:40.995Z,16.55
2017-12-01T13:22:43.506Z,16.55
2017-12-01T13:23:46.015Z,16.55
2017-12-01T13:24:48.556Z,16.55
2017-12-01T13:25:51.069Z,16.55
2017-12-01T13:26:53.608Z,16.56
2017-12-01T13:27:56.105Z,16.55
2017-12-01T13:28:58.596Z,16.57
2017-12-01T13:30:01.092Z,16.58
2017-12-01T13:31:03.858Z,16.60
2017-12-01T13:32:06.315Z,16.60
2017-12-01T13:33:08.789Z,16.58